sensor_id;sensor_type;location;lat;lon;timestamp;pressure;altitude;pressure_sealevel;temperature;humidity
4598;BME280;62772;48.646;8.906;2023-02-28T00:03:26;96821.53;;;-3.67;88.35
4598;BME280;62772;48.646;8.906;2023-02-28T00:08:26;96817.13;;;-3.73;90.33
4598;BME280;62772;48.646;8.906;2023-02-28T00:13:27;96824.56;;;-3.70;89.61
4598;BME280;62772;48.646;8.906;2023-02-28T00:18:27;96822.81;;;-3.89;90.24
4598;BME280;62772;48.646;8.906;2023-02-28T00:23:28;96820.22;;;-4.03;90.87
4598;BME280;62772;48.646;8.906;2023-02-28T00:28:28;96820.44;;;-3.97;89.98
4598;BME280;62772;48.646;8.906;2023-02-28T00:33:29;96818.00;;;-4.06;91.04
4598;BME280;62772;48.646;8.906;2023-02-28T00:38:30;96817.84;;;-4.17;92.93
4598;BME280;62772;48.646;8.906;2023-02-28T00:43:34;96810.84;;;-4.24;93.15
4598;BME280;62772;48.646;8.906;2023-02-28T00:48:35;96819.69;;;-4.25;95.13
4598;BME280;62772;48.646;8.906;2023-02-28T00:53:37;96819.06;;;-4.27;94.66
4598;BME280;62772;48.646;8.906;2023-02-28T00:58:37;96817.66;;;-4.36;96.50
4598;BME280;62772;48.646;8.906;2023-02-28T01:03:38;96812.44;;;-4.36;96.40
4598;BME280;62772;48.646;8.906;2023-02-28T01:08:38;96817.06;;;-4.31;95.28
4598;BME280;62772;48.646;8.906;2023-02-28T01:13:40;96814.25;;;-4.63;99.82
4598;BME280;62772;48.646;8.906;2023-02-28T01:18:41;96810.25;;;-4.52;99.25
4598;BME280;62772;48.646;8.906;2023-02-28T01:23:42;96813.06;;;-4.47;98.10
4598;BME280;62772;48.646;8.906;2023-02-28T01:28:44;96805.63;;;-4.50;99.61
4598;BME280;62772;48.646;8.906;2023-02-28T01:33:45;96804.66;;;-4.49;99.94
4598;BME280;62772;48.646;8.906;2023-02-28T01:38:47;96795.63;;;-4.67;100.00
4598;BME280;62772;48.646;8.906;2023-02-28T01:54:01;96789.22;;;-4.78;100.00
4598;BME280;62772;48.646;8.906;2023-02-28T01:59:03;96788.00;;;-4.62;100.00
4598;BME280;62772;48.646;8.906;2023-02-28T02:04:03;96785.22;;;-4.67;100.00
4598;BME280;62772;48.646;8.906;2023-02-28T02:09:04;96788.81;;;-4.68;100.00
4598;BME280;62772;48.646;8.906;2023-02-28T02:14:30;96777.19;;;-4.65;100.00
4598;BME280;62772;48.646;8.906;2023-02-28T02:35:56;96764.75;;;-4.77;100.00
4598;BME280;62772;48.646;8.906;2023-02-28T02:46:18;96775.38;;;-4.78;100.00
4598;BME280;62772;48.646;8.906;2023-02-28T02:51:21;96766.34;;;-4.82;100.00
4598;BME280;62772;48.646;8.906;2023-02-28T02:56:27;96775.00;;;-4.75;100.00
4598;BME280;62772;48.646;8.906;2023-02-28T03:01:30;96768.38;;;-4.78;100.00
4598;BME280;62772;48.646;8.906;2023-02-28T03:06:31;96778.41;;;-4.81;100.00
4598;BME280;62772;48.646;8.906;2023-02-28T03:11:32;96775.56;;;-4.73;100.00
4598;BME280;62772;48.646;8.906;2023-02-28T03:27:46;96767.19;;;-4.82;100.00
4598;BME280;62772;48.646;8.906;2023-02-28T03:33:00;96770.16;;;-4.71;100.00
4598;BME280;62772;48.646;8.906;2023-02-28T03:38:16;96764.75;;;-4.63;100.00
4598;BME280;62772;48.646;8.906;2023-02-28T03:43:23;96762.13;;;-4.63;100.00
4598;BME280;62772;48.646;8.906;2023-02-28T03:48:33;96762.13;;;-4.63;100.00
4598;BME280;62772;48.646;8.906;2023-02-28T03:53:59;96757.94;;;-4.71;100.00
4598;BME280;62772;48.646;8.906;2023-02-28T03:59:06;96760.16;;;-4.61;100.00
4598;BME280;62772;48.646;8.906;2023-02-28T04:04:11;96768.94;;;-4.56;100.00
4598;BME280;62772;48.646;8.906;2023-02-28T04:09:14;96758.13;;;-4.52;100.00
4598;BME280;62772;48.646;8.906;2023-02-28T04:14:14;96768.16;;;-4.49;100.00
4598;BME280;62772;48.646;8.906;2023-02-28T04:19:15;96770.16;;;-4.45;100.00
4598;BME280;62772;48.646;8.906;2023-02-28T04:24:27;96767.72;;;-4.40;100.00
4598;BME280;62772;48.646;8.906;2023-02-28T04:29:30;96768.53;;;-4.39;100.00
4598;BME280;62772;48.646;8.906;2023-02-28T04:34:31;96768.34;;;-4.44;100.00
4598;BME280;62772;48.646;8.906;2023-02-28T04:39:36;96764.53;;;-4.42;100.00
4598;BME280;62772;48.646;8.906;2023-02-28T04:44:36;96763.31;;;-4.39;100.00
4598;BME280;62772;48.646;8.906;2023-02-28T04:49:37;96759.69;;;-4.38;100.00
4598;BME280;62772;48.646;8.906;2023-02-28T04:54:38;96761.50;;;-4.32;100.00
4598;BME280;62772;48.646;8.906;2023-02-28T04:59:39;96756.28;;;-4.32;100.00
4598;BME280;62772;48.646;8.906;2023-02-28T05:04:39;96765.31;;;-4.28;100.00
4598;BME280;62772;48.646;8.906;2023-02-28T05:09:40;96763.69;;;-4.22;100.00
4598;BME280;62772;48.646;8.906;2023-02-28T05:14:40;96766.50;;;-4.24;100.00
4598;BME280;62772;48.646;8.906;2023-02-28T05:19:41;96775.34;;;-4.25;100.00
4598;BME280;62772;48.646;8.906;2023-02-28T05:24:41;96778.53;;;-4.23;100.00
4598;BME280;62772;48.646;8.906;2023-02-28T05:29:42;96780.75;;;-4.20;100.00
4598;BME280;62772;48.646;8.906;2023-02-28T05:34:45;96785.97;;;-4.20;100.00
4598;BME280;62772;48.646;8.906;2023-02-28T05:39:46;96779.50;;;-4.17;100.00
4598;BME280;62772;48.646;8.906;2023-02-28T05:44:47;96776.91;;;-4.17;100.00
4598;BME280;62772;48.646;8.906;2023-02-28T05:49:47;96775.72;;;-4.14;100.00
4598;BME280;62772;48.646;8.906;2023-02-28T05:54:47;96770.69;;;-4.16;100.00
4598;BME280;62772;48.646;8.906;2023-02-28T05:59:48;96776.50;;;-4.14;100.00
4598;BME280;62772;48.646;8.906;2023-02-28T06:04:48;96774.72;;;-4.13;100.00
4598;BME280;62772;48.646;8.906;2023-02-28T06:09:49;96784.53;;;-4.15;100.00
4598;BME280;62772;48.646;8.906;2023-02-28T06:14:49;96788.16;;;-4.16;100.00
4598;BME280;62772;48.646;8.906;2023-02-28T06:19:50;96792.56;;;-4.17;100.00
4598;BME280;62772;48.646;8.906;2023-02-28T06:24:50;96803.41;;;-4.13;100.00
4598;BME280;62772;48.646;8.906;2023-02-28T06:29:54;96811.63;;;-4.10;100.00
4598;BME280;62772;48.646;8.906;2023-02-28T06:34:55;96812.41;;;-4.09;100.00
4598;BME280;62772;48.646;8.906;2023-02-28T06:39:57;96806.00;;;-4.13;100.00
4598;BME280;62772;48.646;8.906;2023-02-28T06:44:58;96812.22;;;-4.08;100.00
4598;BME280;62772;48.646;8.906;2023-02-28T06:49:58;96816.63;;;-4.08;100.00
4598;BME280;62772;48.646;8.906;2023-02-28T06:55:02;96819.44;;;-4.10;100.00
4598;BME280;62772;48.646;8.906;2023-02-28T07:00:07;96820.22;;;-4.03;100.00
4598;BME280;62772;48.646;8.906;2023-02-28T07:05:08;96820.84;;;-4.01;100.00
4598;BME280;62772;48.646;8.906;2023-02-28T07:10:10;96825.22;;;-4.01;100.00
4598;BME280;62772;48.646;8.906;2023-02-28T07:15:11;96826.03;;;-3.94;100.00
4598;BME280;62772;48.646;8.906;2023-02-28T07:20:12;96821.56;;;-3.87;100.00
4598;BME280;62772;48.646;8.906;2023-02-28T07:25:12;96823.19;;;-3.86;100.00
4598;BME280;62772;48.646;8.906;2023-02-28T07:30:13;96831.22;;;-3.87;100.00
4598;BME280;62772;48.646;8.906;2023-02-28T07:35:14;96832.38;;;-3.70;100.00
4598;BME280;62772;48.646;8.906;2023-02-28T07:40:15;96832.34;;;-3.63;100.00
4598;BME280;62772;48.646;8.906;2023-02-28T07:45:18;96828.91;;;-3.57;100.00
4598;BME280;62772;48.646;8.906;2023-02-28T07:50:19;96831.53;;;-3.57;100.00
4598;BME280;62772;48.646;8.906;2023-02-28T07:55:20;96835.94;;;-3.51;100.00
4598;BME280;62772;48.646;8.906;2023-02-28T08:00:20;96832.50;;;-3.44;100.00
4598;BME280;62772;48.646;8.906;2023-02-28T08:05:21;96845.09;;;-3.35;100.00
4598;BME280;62772;48.646;8.906;2023-02-28T08:10:22;96848.72;;;-3.36;100.00
4598;BME280;62772;48.646;8.906;2023-02-28T08:15:22;96857.16;;;-3.34;100.00
4598;BME280;62772;48.646;8.906;2023-02-28T08:20:24;96855.50;;;-3.28;100.00
4598;BME280;62772;48.646;8.906;2023-02-28T08:25:25;96842.41;;;-3.21;100.00
4598;BME280;62772;48.646;8.906;2023-02-28T08:30:25;96851.00;;;-3.07;100.00
4598;BME280;62772;48.646;8.906;2023-02-28T08:35:26;96850.00;;;-3.06;100.00
4598;BME280;62772;48.646;8.906;2023-02-28T08:40:26;96856.59;;;-3.04;100.00
4598;BME280;62772;48.646;8.906;2023-02-28T08:45:27;96862.03;;;-2.99;100.00
4598;BME280;62772;48.646;8.906;2023-02-28T08:50:27;96857.59;;;-2.98;100.00
4598;BME280;62772;48.646;8.906;2023-02-28T08:55:27;96867.16;;;-2.85;100.00
4598;BME280;62772;48.646;8.906;2023-02-28T09:00:28;96872.59;;;-2.87;100.00
4598;BME280;62772;48.646;8.906;2023-02-28T09:05:28;96876.00;;;-2.86;100.00
4598;BME280;62772;48.646;8.906;2023-02-28T09:10:30;96873.19;;;-2.85;100.00
4598;BME280;62772;48.646;8.906;2023-02-28T09:15:30;96875.72;;;-2.71;100.00
4598;BME280;62772;48.646;8.906;2023-02-28T09:20:30;96882.13;;;-2.67;100.00
4598;BME280;62772;48.646;8.906;2023-02-28T09:25:31;96884.56;;;-2.72;100.00
4598;BME280;62772;48.646;8.906;2023-02-28T09:30:31;96879.94;;;-2.70;100.00
4598;BME280;62772;48.646;8.906;2023-02-28T09:35:32;96878.47;;;-2.60;100.00
4598;BME280;62772;48.646;8.906;2023-02-28T09:40:37;96877.34;;;-2.45;100.00
4598;BME280;62772;48.646;8.906;2023-02-28T09:45:42;96884.50;;;-2.59;100.00
4598;BME280;62772;48.646;8.906;2023-02-28T09:50:47;96887.81;;;-2.45;100.00
4598;BME280;62772;48.646;8.906;2023-02-28T09:55:51;96885.19;;;-2.45;100.00
4598;BME280;62772;48.646;8.906;2023-02-28T10:01:03;96892.78;;;-2.37;100.00
4598;BME280;62772;48.646;8.906;2023-02-28T10:06:14;96894.47;;;-2.17;100.00
4598;BME280;62772;48.646;8.906;2023-02-28T10:11:17;96909.19;;;-2.23;100.00
4598;BME280;62772;48.646;8.906;2023-02-28T10:21:34;96913.69;;;-2.05;100.00
4598;BME280;62772;48.646;8.906;2023-02-28T10:26:36;96906.56;;;-1.98;100.00
4598;BME280;62772;48.646;8.906;2023-02-28T10:31:38;96911.16;;;-1.93;100.00
4598;BME280;62772;48.646;8.906;2023-02-28T10:36:39;96915.47;;;-1.80;100.00
4598;BME280;62772;48.646;8.906;2023-02-28T10:41:42;96912.06;;;-1.81;98.95
4598;BME280;62772;48.646;8.906;2023-02-28T10:46:43;96920.50;;;-1.79;99.20
4598;BME280;62772;48.646;8.906;2023-02-28T10:51:44;96917.03;;;-1.73;98.15
4598;BME280;62772;48.646;8.906;2023-02-28T10:56:45;96912.47;;;-1.59;97.62
4598;BME280;62772;48.646;8.906;2023-02-28T11:01:46;96914.03;;;-1.58;95.40
4598;BME280;62772;48.646;8.906;2023-02-28T11:06:57;96919.16;;;-1.44;95.07
4598;BME280;62772;48.646;8.906;2023-02-28T11:11:58;96917.25;;;-1.37;93.64
4598;BME280;62772;48.646;8.906;2023-02-28T11:17:15;96918.63;;;-1.16;91.64
4598;BME280;62772;48.646;8.906;2023-02-28T11:22:23;96921.41;;;-1.11;89.64
4598;BME280;62772;48.646;8.906;2023-02-28T11:32:31;96924.53;;;-1.02;89.71
4598;BME280;62772;48.646;8.906;2023-02-28T11:37:32;96916.28;;;-0.87;89.40
4598;BME280;62772;48.646;8.906;2023-02-28T11:42:57;96925.59;;;-0.73;86.73
4598;BME280;62772;48.646;8.906;2023-02-28T11:53:45;96910.81;;;-0.56;85.79
4598;BME280;62772;48.646;8.906;2023-02-28T12:04:26;96903.94;;;-0.68;85.07
4598;BME280;62772;48.646;8.906;2023-02-28T12:30:53;96884.63;;;-0.20;83.36
4598;BME280;62772;48.646;8.906;2023-02-28T12:35:59;96886.47;;;-0.09;82.58
4598;BME280;62772;48.646;8.906;2023-02-28T12:41:10;96887.28;;;0.15;82.06
4598;BME280;62772;48.646;8.906;2023-02-28T12:46:29;96886.94;;;0.12;82.25
4598;BME280;62772;48.646;8.906;2023-02-28T12:51:34;96875.50;;;0.06;81.94
4598;BME280;62772;48.646;8.906;2023-02-28T13:01:47;96872.66;;;0.20;81.77
4598;BME280;62772;48.646;8.906;2023-02-28T13:07:00;96867.16;;;0.09;81.62
4598;BME280;62772;48.646;8.906;2023-02-28T13:12:14;96859.88;;;0.11;80.54
4598;BME280;62772;48.646;8.906;2023-02-28T13:17:23;96859.97;;;0.40;79.00
4598;BME280;62772;48.646;8.906;2023-02-28T13:27:39;96850.75;;;0.66;76.63
4598;BME280;62772;48.646;8.906;2023-02-28T13:32:40;96856.09;;;0.71;75.34
4598;BME280;62772;48.646;8.906;2023-02-28T13:37:45;96862.06;;;0.79;78.29
4598;BME280;62772;48.646;8.906;2023-02-28T13:42:50;96870.03;;;0.84;76.32
4598;BME280;62772;48.646;8.906;2023-02-28T13:47:56;96854.94;;;0.91;73.40
4598;BME280;62772;48.646;8.906;2023-02-28T14:03:46;96847.50;;;1.17;72.91
4598;BME280;62772;48.646;8.906;2023-02-28T14:09:27;96864.22;;;1.11;74.39
4598;BME280;62772;48.646;8.906;2023-02-28T14:19:37;96853.81;;;1.33;73.96
4598;BME280;62772;48.646;8.906;2023-02-28T14:35:16;96848.56;;;1.33;73.56
4598;BME280;62772;48.646;8.906;2023-02-28T14:45:23;96843.06;;;1.34;70.48
4598;BME280;62772;48.646;8.906;2023-02-28T14:50:31;96856.03;;;1.53;70.81
4598;BME280;62772;48.646;8.906;2023-02-28T14:55:35;96855.91;;;1.48;69.13
4598;BME280;62772;48.646;8.906;2023-02-28T15:00:40;96858.50;;;1.59;70.26
4598;BME280;62772;48.646;8.906;2023-02-28T15:05:54;96854.31;;;1.63;71.35
4598;BME280;62772;48.646;8.906;2023-02-28T15:10:55;96856.97;;;1.63;70.66
4598;BME280;62772;48.646;8.906;2023-02-28T15:16:03;96857.44;;;1.60;69.93
4598;BME280;62772;48.646;8.906;2023-02-28T15:21:07;96850.25;;;1.73;67.67
4598;BME280;62772;48.646;8.906;2023-02-28T15:26:15;96856.31;;;1.73;70.20
4598;BME280;62772;48.646;8.906;2023-02-28T15:31:44;96848.53;;;1.78;71.73
4598;BME280;62772;48.646;8.906;2023-02-28T15:36:45;96857.38;;;1.72;70.04
4598;BME280;62772;48.646;8.906;2023-02-28T15:41:46;96856.00;;;1.87;69.30
4598;BME280;62772;48.646;8.906;2023-02-28T15:47:12;96851.06;;;1.73;68.31
4598;BME280;62772;48.646;8.906;2023-02-28T15:52:21;96856.78;;;1.70;69.54
4598;BME280;62772;48.646;8.906;2023-02-28T15:57:25;96861.34;;;1.75;68.78
4598;BME280;62772;48.646;8.906;2023-02-28T16:02:35;96865.81;;;1.74;69.29
4598;BME280;62772;48.646;8.906;2023-02-28T16:07:42;96863.91;;;1.70;68.07
4598;BME280;62772;48.646;8.906;2023-02-28T16:12:43;96857.84;;;1.69;70.23
4598;BME280;62772;48.646;8.906;2023-02-28T16:17:44;96866.78;;;1.68;71.50
4598;BME280;62772;48.646;8.906;2023-02-28T16:22:45;96869.09;;;1.65;71.38
4598;BME280;62772;48.646;8.906;2023-02-28T16:27:48;96868.44;;;1.57;70.43
4598;BME280;62772;48.646;8.906;2023-02-28T16:32:51;96871.53;;;1.54;70.60
4598;BME280;62772;48.646;8.906;2023-02-28T16:37:53;96874.09;;;1.49;71.94
4598;BME280;62772;48.646;8.906;2023-02-28T16:42:57;96880.53;;;1.41;71.21
4598;BME280;62772;48.646;8.906;2023-02-28T16:47:59;96878.16;;;1.40;70.45
4598;BME280;62772;48.646;8.906;2023-02-28T16:52:59;96889.97;;;1.37;71.57
4598;BME280;62772;48.646;8.906;2023-02-28T16:58:00;96891.38;;;1.28;72.76
4598;BME280;62772;48.646;8.906;2023-02-28T17:03:02;96898.66;;;1.09;76.25
4598;BME280;62772;48.646;8.906;2023-02-28T17:08:02;96906.88;;;1.13;75.16
4598;BME280;62772;48.646;8.906;2023-02-28T17:13:03;96901.19;;;1.04;75.47
4598;BME280;62772;48.646;8.906;2023-02-28T17:18:04;96908.88;;;0.94;76.70
4598;BME280;62772;48.646;8.906;2023-02-28T17:23:06;96919.53;;;0.87;78.24
4598;BME280;62772;48.646;8.906;2023-02-28T17:28:08;96927.31;;;0.82;77.64
4598;BME280;62772;48.646;8.906;2023-02-28T17:33:09;96934.28;;;0.76;79.14
4598;BME280;62772;48.646;8.906;2023-02-28T17:38:15;96932.13;;;0.73;80.02
4598;BME280;62772;48.646;8.906;2023-02-28T17:43:16;96934.41;;;0.69;79.63
4598;BME280;62772;48.646;8.906;2023-02-28T17:48:16;96943.22;;;0.63;80.21
4598;BME280;62772;48.646;8.906;2023-02-28T17:53:17;96948.03;;;0.54;81.24
4598;BME280;62772;48.646;8.906;2023-02-28T17:58:18;96944.94;;;0.46;81.53
4598;BME280;62772;48.646;8.906;2023-02-28T18:03:18;96949.31;;;0.40;82.34
4598;BME280;62772;48.646;8.906;2023-02-28T18:08:20;96939.94;;;0.32;83.32
4598;BME280;62772;48.646;8.906;2023-02-28T18:13:20;96939.84;;;0.27;84.23
4598;BME280;62772;48.646;8.906;2023-02-28T18:18:20;96942.09;;;0.24;84.13
4598;BME280;62772;48.646;8.906;2023-02-28T18:23:21;96951.25;;;0.21;84.58
4598;BME280;62772;48.646;8.906;2023-02-28T18:28:21;96949.75;;;0.13;85.33
4598;BME280;62772;48.646;8.906;2023-02-28T18:33:22;96949.63;;;0.08;86.25
4598;BME280;62772;48.646;8.906;2023-02-28T18:38:22;96946.88;;;-0.09;89.59
4598;BME280;62772;48.646;8.906;2023-02-28T18:43:22;96952.00;;;-0.02;89.95
4598;BME280;62772;48.646;8.906;2023-02-28T18:48:23;96954.75;;;-0.09;89.64
4598;BME280;62772;48.646;8.906;2023-02-28T18:53:24;96943.19;;;-0.20;90.21
4598;BME280;62772;48.646;8.906;2023-02-28T18:58:24;96944.53;;;-0.29;91.18
4598;BME280;62772;48.646;8.906;2023-02-28T19:03:25;96955.13;;;-0.66;94.44
4598;BME280;62772;48.646;8.906;2023-02-28T19:08:25;96941.34;;;-0.31;90.96
4598;BME280;62772;48.646;8.906;2023-02-28T19:13:26;96942.63;;;-0.22;89.96
4598;BME280;62772;48.646;8.906;2023-02-28T19:18:26;96950.75;;;-0.53;93.02
4598;BME280;62772;48.646;8.906;2023-02-28T19:23:27;96951.84;;;-0.31;91.74
4598;BME280;62772;48.646;8.906;2023-02-28T19:28:30;96943.34;;;-0.45;92.71
4598;BME280;62772;48.646;8.906;2023-02-28T19:33:31;96949.53;;;-0.69;93.75
4598;BME280;62772;48.646;8.906;2023-02-28T19:38:31;96941.53;;;-0.44;92.35
4598;BME280;62772;48.646;8.906;2023-02-28T19:43:32;96949.94;;;-0.54;93.17
4598;BME280;62772;48.646;8.906;2023-02-28T19:48:32;96950.69;;;-0.65;93.77
4598;BME280;62772;48.646;8.906;2023-02-28T19:53:35;96956.31;;;-0.62;93.25
4598;BME280;62772;48.646;8.906;2023-02-28T19:58:37;96956.97;;;-0.66;94.94
4598;BME280;62772;48.646;8.906;2023-02-28T20:03:38;96957.72;;;-0.78;94.86
4598;BME280;62772;48.646;8.906;2023-02-28T20:08:38;96956.84;;;-0.71;94.45
4598;BME280;62772;48.646;8.906;2023-02-28T20:13:40;96954.50;;;-0.80;95.05
4598;BME280;62772;48.646;8.906;2023-02-28T20:18:41;96947.59;;;-0.93;96.09
4598;BME280;62772;48.646;8.906;2023-02-28T20:23:44;96945.13;;;-1.06;97.33
4598;BME280;62772;48.646;8.906;2023-02-28T20:28:46;96946.97;;;-1.25;97.81
4598;BME280;62772;48.646;8.906;2023-02-28T20:33:47;96939.16;;;-1.13;97.70
4598;BME280;62772;48.646;8.906;2023-02-28T20:38:52;96936.91;;;-1.10;96.83
4598;BME280;62772;48.646;8.906;2023-02-28T20:43:57;96941.50;;;-1.23;97.54
4598;BME280;62772;48.646;8.906;2023-02-28T20:48:58;96938.00;;;-1.17;97.38
4598;BME280;62772;48.646;8.906;2023-02-28T20:53:58;96936.91;;;-1.28;100.00
4598;BME280;62772;48.646;8.906;2023-02-28T20:58:58;96934.00;;;-1.20;98.34
4598;BME280;62772;48.646;8.906;2023-02-28T21:04:02;96938.00;;;-1.36;99.75
4598;BME280;62772;48.646;8.906;2023-02-28T21:09:07;96937.84;;;-1.41;100.00
4598;BME280;62772;48.646;8.906;2023-02-28T21:14:14;96942.31;;;-1.41;100.00
4598;BME280;62772;48.646;8.906;2023-02-28T21:19:15;96940.84;;;-1.37;100.00
4598;BME280;62772;48.646;8.906;2023-02-28T21:24:17;96941.41;;;-1.54;100.00
4598;BME280;62772;48.646;8.906;2023-02-28T21:29:18;96945.88;;;-1.54;100.00
4598;BME280;62772;48.646;8.906;2023-02-28T21:34:19;96937.41;;;-1.56;100.00
4598;BME280;62772;48.646;8.906;2023-02-28T21:39:22;96948.22;;;-1.71;100.00
4598;BME280;62772;48.646;8.906;2023-02-28T21:44:24;96947.72;;;-1.61;100.00
4598;BME280;62772;48.646;8.906;2023-02-28T21:49:27;96935.06;;;-1.65;100.00
4598;BME280;62772;48.646;8.906;2023-02-28T21:54:28;96937.84;;;-1.85;100.00
4598;BME280;62772;48.646;8.906;2023-02-28T21:59:28;96935.03;;;-1.83;100.00
4598;BME280;62772;48.646;8.906;2023-02-28T22:04:29;96929.59;;;-2.07;100.00
4598;BME280;62772;48.646;8.906;2023-02-28T22:09:30;96932.66;;;-1.66;100.00
4598;BME280;62772;48.646;8.906;2023-02-28T22:14:30;96938.13;;;-1.68;100.00
4598;BME280;62772;48.646;8.906;2023-02-28T22:19:31;96927.50;;;-1.98;100.00
4598;BME280;62772;48.646;8.906;2023-02-28T22:24:31;96928.84;;;-1.89;100.00
4598;BME280;62772;48.646;8.906;2023-02-28T22:29:32;96923.75;;;-1.84;100.00
4598;BME280;62772;48.646;8.906;2023-02-28T22:34:32;96921.69;;;-2.00;100.00
4598;BME280;62772;48.646;8.906;2023-02-28T22:39:33;96922.19;;;-2.10;100.00
4598;BME280;62772;48.646;8.906;2023-02-28T22:44:35;96917.31;;;-2.06;100.00
4598;BME280;62772;48.646;8.906;2023-02-28T22:49:35;96921.91;;;-2.02;100.00
4598;BME280;62772;48.646;8.906;2023-02-28T22:54:35;96915.88;;;-2.91;100.00
4598;BME280;62772;48.646;8.906;2023-02-28T22:59:36;96917.34;;;-3.15;100.00
4598;BME280;62772;48.646;8.906;2023-02-28T23:04:36;96915.16;;;-2.41;100.00
4598;BME280;62772;48.646;8.906;2023-02-28T23:09:37;96925.75;;;-3.00;100.00
4598;BME280;62772;48.646;8.906;2023-02-28T23:14:37;96927.59;;;-3.14;100.00
4598;BME280;62772;48.646;8.906;2023-02-28T23:19:38;96931.88;;;-3.26;100.00
4598;BME280;62772;48.646;8.906;2023-02-28T23:24:38;96916.13;;;-3.06;100.00
4598;BME280;62772;48.646;8.906;2023-02-28T23:29:39;96922.72;;;-3.62;100.00
4598;BME280;62772;48.646;8.906;2023-02-28T23:34:39;96935.81;;;-4.22;100.00
4598;BME280;62772;48.646;8.906;2023-02-28T23:39:40;96929.59;;;-4.01;100.00
4598;BME280;62772;48.646;8.906;2023-02-28T23:44:40;96930.53;;;-3.42;100.00
4598;BME280;62772;48.646;8.906;2023-02-28T23:49:41;96929.13;;;-3.44;100.00
4598;BME280;62772;48.646;8.906;2023-02-28T23:54:41;96922.97;;;-3.97;100.00
4598;BME280;62772;48.646;8.906;2023-02-28T23:59:42;96923.78;;;-4.43;100.00
